Time,TemperatureF,DewpointF,PressureIn,WindDirection,WindDirectionDegrees,WindSpeedMPH,WindSpeedGustMPH,Humidity,HourlyPrecipIn,Conditions,Clouds,dailyrainin,SoftwareType,DateUTC
2013-05-18 00:11:00,62.4,56.0,29.96,SSE,155,1.0,2.0,79,0.00,,,0.00,weatherlink.com 1.10,2013-05-18 07:11:00,
2013-05-18 00:26:00,62.3,56.0,29.96,SSW,207,0.0,2.0,79,0.00,,,0.00,weatherlink.com 1.10,2013-05-18 07:26:00,
2013-05-18 00:41:00,62.2,56.0,29.96,SE,143,0.0,2.0,79,0.00,,,0.00,weatherlink.com 1.10,2013-05-18 07:41:00,
2013-05-18 00:56:00,61.7,55.0,29.96,SW,224,0.0,0.0,79,0.00,,,0.00,weatherlink.com 1.10,2013-05-18 07:56:00,
2013-05-18 01:11:00,61.6,55.0,29.96,SW,233,0.0,1.0,79,0.00,,,0.00,weatherlink.com 1.10,2013-05-18 08:11:00,
2013-05-18 01:26:00,61.4,55.0,29.95,SW,233,0.0,1.0,79,0.00,,,0.00,weatherlink.com 1.10,2013-05-18 08:26:00,
2013-05-18 01:41:00,60.9,55.0,29.95,SW,233,0.0,0.0,80,0.00,,,0.00,weatherlink.com 1.10,2013-05-18 08:41:00,
2013-05-18 01:56:00,60.6,54.0,29.95,SW,233,0.0,0.0,80,0.00,,,0.00,weatherlink.com 1.10,2013-05-18 08:56:00,
2013-05-18 02:11:00,60.7,55.0,29.95,SW,233,0.0,0.0,80,0.00,,,0.00,weatherlink.com 1.10,2013-05-18 09:11:00,
2013-05-18 02:26:00,61.0,55.0,29.95,SW,233,0.0,0.0,80,0.00,,,0.00,weatherlink.com 1.10,2013-05-18 09:26:00,
2013-05-18 02:41:00,61.6,55.0,29.95,SW,233,0.0,0.0,79,0.00,,,0.00,weatherlink.com 1.10,2013-05-18 09:41:00,
2013-05-18 02:56:00,61.9,55.0,29.95,SW,233,0.0,0.0,79,0.00,,,0.00,weatherlink.com 1.10,2013-05-18 09:56:00,
2013-05-18 03:11:00,61.9,55.0,29.95,SW,233,0.0,0.0,78,0.00,,,0.00,weatherlink.com 1.10,2013-05-18 10:11:00,
2013-05-18 03:26:00,61.8,56.0,29.95,SW,233,0.0,0.0,80,0.00,,,0.00,weatherlink.com 1.10,2013-05-18 10:26:00,
2013-05-18 03:41:00,62.4,57.0,29.95,SE,132,0.0,3.0,81,0.00,,,0.00,weatherlink.com 1.10,2013-05-18 10:41:00,
2013-05-18 03:56:00,62.8,57.0,29.96,SSE,159,1.0,3.0,81,0.00,,,0.00,weatherlink.com 1.10,2013-05-18 10:56:00,
2013-05-18 04:11:00,62.6,57.0,29.95,SE,142,1.0,2.0,81,0.00,,,0.00,weatherlink.com 1.10,2013-05-18 11:11:00,
2013-05-18 04:27:00,62.1,56.0,29.95,SE,145,0.0,1.0,81,0.00,,,0.00,weatherlink.com 1.10,2013-05-18 11:27:00,
2013-05-18 04:42:00,61.8,56.0,29.96,SSE,159,0.0,2.0,82,0.00,,,0.00,weatherlink.com 1.10,2013-05-18 11:42:00,
2013-05-18 04:57:00,61.3,56.0,29.96,SSE,158,0.0,0.0,83,0.00,,,0.00,weatherlink.com 1.10,2013-05-18 11:57:00,
2013-05-18 05:12:00,60.9,56.0,29.96,SSE,159,0.0,0.0,83,0.00,,,0.00,weatherlink.com 1.10,2013-05-18 12:12:00,
2013-05-18 05:27:00,60.5,56.0,29.96,SSE,158,0.0,0.0,84,0.00,,,0.00,weatherlink.com 1.10,2013-05-18 12:27:00,
2013-05-18 05:42:00,60.1,56.0,29.96,SSE,158,0.0,0.0,85,0.00,,,0.00,weatherlink.com 1.10,2013-05-18 12:42:00,
2013-05-18 05:57:00,59.8,55.0,29.97,SSE,159,0.0,0.0,85,0.00,,,0.00,weatherlink.com 1.10,2013-05-18 12:57:00,
2013-05-18 06:12:00,59.7,56.0,29.98,SSE,159,0.0,0.0,86,0.00,,,0.00,weatherlink.com 1.10,2013-05-18 13:12:00,
2013-05-18 06:27:00,59.9,56.0,29.98,SSE,158,0.0,0.0,86,0.00,,,0.00,weatherlink.com 1.10,2013-05-18 13:27:00,
2013-05-18 06:42:00,61.4,57.0,29.98,SSE,158,0.0,0.0,86,0.00,,,0.00,weatherlink.com 1.10,2013-05-18 13:42:00,
2013-05-18 06:57:00,62.0,57.0,29.99,SSE,158,0.0,0.0,84,0.00,,,0.00,weatherlink.com 1.10,2013-05-18 13:57:00,
2013-05-18 07:12:00,64.0,57.0,29.99,SE,127,0.0,4.0,79,0.00,,,0.00,weatherlink.com 1.10,2013-05-18 14:12:00,
2013-05-18 07:27:00,65.0,57.0,29.99,East,93,0.0,4.0,76,0.00,,,0.00,weatherlink.com 1.10,2013-05-18 14:27:00,
2013-05-18 07:42:00,65.2,57.0,29.99,SSE,155,2.0,6.0,75,0.00,,,0.00,weatherlink.com 1.10,2013-05-18 14:42:00,
2013-05-18 07:57:00,66.5,57.0,29.99,South,180,0.0,5.0,71,0.00,,,0.00,weatherlink.com 1.10,2013-05-18 14:57:00,
2013-05-18 08:12:00,67.6,57.0,30.00,WSW,257,4.0,5.0,70,0.00,,,0.00,weatherlink.com 1.10,2013-05-18 15:12:00,
2013-05-18 08:27:00,67.2,57.0,30.00,SW,227,0.0,6.0,70,0.00,,,0.00,weatherlink.com 1.10,2013-05-18 15:27:00,
2013-05-18 08:42:00,66.6,57.0,30.00,SW,214,4.0,8.0,70,0.00,,,0.00,weatherlink.com 1.10,2013-05-18 15:42:00,
2013-05-18 08:57:00,66.9,56.0,30.00,SW,219,1.0,7.0,69,0.00,,,0.00,weatherlink.com 1.10,2013-05-18 15:57:00,
2013-05-18 09:12:00,67.4,57.0,30.00,SSE,159,2.0,8.0,69,0.00,,,0.00,weatherlink.com 1.10,2013-05-18 16:12:00,
2013-05-18 09:27:00,69.2,57.0,30.00,South,184,5.0,7.0,66,0.00,,,0.00,weatherlink.com 1.10,2013-05-18 16:27:00,
2013-05-18 09:42:00,68.6,57.0,30.00,SW,217,2.0,8.0,66,0.00,,,0.00,weatherlink.com 1.10,2013-05-18 16:42:00,
2013-05-18 09:57:00,68.9,57.0,30.00,South,186,3.0,7.0,65,0.00,,,0.00,weatherlink.com 1.10,2013-05-18 16:57:00,
2013-05-18 10:12:00,69.5,57.0,30.00,SSW,213,3.0,8.0,64,0.00,,,0.00,weatherlink.com 1.10,2013-05-18 17:12:00,
2013-05-18 10:27:00,70.0,56.0,30.00,SSE,149,4.0,9.0,62,0.00,,,0.00,weatherlink.com 1.10,2013-05-18 17:27:00,
2013-05-18 10:42:00,71.6,56.0,30.00,SW,227,5.0,10.0,58,0.00,,,0.00,weatherlink.com 1.10,2013-05-18 17:42:00,
2013-05-18 10:57:00,71.0,56.0,30.01,South,190,7.0,10.0,60,0.00,,,0.00,weatherlink.com 1.10,2013-05-18 17:57:00,
2013-05-18 11:12:00,71.7,56.0,30.00,SSW,207,6.0,9.0,59,0.00,,,0.00,weatherlink.com 1.10,2013-05-18 18:12:00,
2013-05-18 11:27:00,72.1,57.0,30.00,SSW,194,4.0,11.0,59,0.00,,,0.00,weatherlink.com 1.10,2013-05-18 18:27:00,
2013-05-18 11:42:00,72.1,56.0,30.00,SE,129,2.0,10.0,58,0.00,,,0.00,weatherlink.com 1.10,2013-05-18 18:42:00,
2013-05-18 11:57:00,72.3,56.0,30.00,SSW,205,5.0,10.0,56,0.00,,,0.00,weatherlink.com 1.10,2013-05-18 18:57:00,
2013-05-18 12:12:00,72.8,56.0,29.99,SW,214,8.0,9.0,56,0.00,,,0.00,weatherlink.com 1.10,2013-05-18 19:12:00,
2013-05-18 12:27:00,72.4,56.0,29.99,South,181,4.0,9.0,57,0.00,,,0.00,weatherlink.com 1.10,2013-05-18 19:27:00,
2013-05-18 12:42:00,72.7,57.0,29.99,WNW,283,4.0,10.0,58,0.00,,,0.00,weatherlink.com 1.10,2013-05-18 19:42:00,
2013-05-18 12:57:00,73.9,57.0,29.98,SSE,155,3.0,7.0,56,0.00,,,0.00,weatherlink.com 1.10,2013-05-18 19:57:00,
2013-05-18 13:12:00,73.5,56.0,29.98,SW,214,9.0,9.0,55,0.00,,,0.00,weatherlink.com 1.10,2013-05-18 20:12:00,
2013-05-18 13:27:00,73.7,55.0,29.98,SW,232,2.0,10.0,52,0.00,,,0.00,weatherlink.com 1.10,2013-05-18 20:27:00,
2013-05-18 13:42:00,74.0,56.0,29.97,WSW,242,6.0,8.0,54,0.00,,,0.00,weatherlink.com 1.10,2013-05-18 20:42:00,
2013-05-18 13:57:00,73.9,56.0,29.97,West,278,3.0,10.0,53,0.00,,,0.00,weatherlink.com 1.10,2013-05-18 20:57:00,
2013-05-18 14:12:00,74.1,56.0,29.97,SW,236,4.0,9.0,53,0.00,,,0.00,weatherlink.com 1.10,2013-05-18 21:12:00,
2013-05-18 14:27:00,74.0,55.0,29.97,WSW,243,2.0,9.0,52,0.00,,,0.00,weatherlink.com 1.10,2013-05-18 21:27:00,
2013-05-18 14:42:00,73.9,56.0,29.97,SW,220,8.0,11.0,54,0.00,,,0.00,weatherlink.com 1.10,2013-05-18 21:42:00,
2013-05-18 14:57:00,74.4,57.0,29.96,SSE,160,3.0,10.0,54,0.00,,,0.00,weatherlink.com 1.10,2013-05-18 21:57:00,
2013-05-18 15:12:00,74.1,57.0,29.96,WSW,254,7.0,11.0,55,0.00,,,0.00,weatherlink.com 1.10,2013-05-18 22:12:00,
2013-05-18 15:27:00,74.2,57.0,29.96,SE,138,6.0,9.0,56,0.00,,,0.00,weatherlink.com 1.10,2013-05-18 22:27:00,
2013-05-18 15:42:00,74.3,57.0,29.95,WSW,240,6.0,11.0,56,0.00,,,0.00,weatherlink.com 1.10,2013-05-18 22:42:00,
2013-05-18 15:58:00,75.1,56.0,29.95,SSW,201,5.0,10.0,51,0.00,,,0.00,weatherlink.com 1.10,2013-05-18 22:58:00,
2013-05-18 16:13:00,75.2,55.0,29.95,SSW,202,1.0,9.0,50,0.00,,,0.00,weatherlink.com 1.10,2013-05-18 23:13:00,
2013-05-18 16:28:00,75.4,56.0,29.95,SW,236,2.0,9.0,51,0.00,,,0.00,weatherlink.com 1.10,2013-05-18 23:28:00,
2013-05-18 16:43:00,75.6,55.0,29.94,ESE,114,2.0,8.0,49,0.00,,,0.00,weatherlink.com 1.10,2013-05-18 23:43:00,
2013-05-18 16:58:00,75.4,56.0,29.94,SW,220,3.0,8.0,52,0.00,,,0.00,weatherlink.com 1.10,2013-05-18 23:58:00,
2013-05-18 17:13:00,75.1,57.0,29.94,SSE,161,4.0,9.0,53,0.00,,,0.00,weatherlink.com 1.10,2013-05-19 00:13:00,
2013-05-18 17:28:00,74.6,56.0,29.93,SE,144,4.0,7.0,53,0.00,,,0.00,weatherlink.com 1.10,2013-05-19 00:28:00,
2013-05-18 17:43:00,74.5,57.0,29.93,South,169,4.0,8.0,54,0.00,,,0.00,weatherlink.com 1.10,2013-05-19 00:43:00,
2013-05-18 17:58:00,74.4,57.0,29.93,SSE,152,3.0,7.0,55,0.00,,,0.00,weatherlink.com 1.10,2013-05-19 00:58:00,
2013-05-18 18:13:00,75.0,57.0,29.93,ESE,122,4.0,6.0,53,0.00,,,0.00,weatherlink.com 1.10,2013-05-19 01:13:00,
2013-05-18 18:28:00,75.2,57.0,29.93,WSW,243,2.0,7.0,53,0.00,,,0.00,weatherlink.com 1.10,2013-05-19 01:28:00,
2013-05-18 18:43:00,73.3,57.0,29.93,South,175,2.0,7.0,56,0.00,,,0.00,weatherlink.com 1.10,2013-05-19 01:43:00,
2013-05-18 18:58:00,72.4,57.0,29.93,SE,144,4.0,7.0,58,0.00,,,0.00,weatherlink.com 1.10,2013-05-19 01:58:00,
2013-05-18 19:13:00,72.0,56.0,29.94,SW,220,1.0,4.0,57,0.00,,,0.00,weatherlink.com 1.10,2013-05-19 02:13:00,
2013-05-18 19:28:00,70.5,56.0,29.94,SW,218,1.0,5.0,61,0.00,,,0.00,weatherlink.com 1.10,2013-05-19 02:28:00,
2013-05-18 19:43:00,69.1,56.0,29.94,WSW,249,2.0,4.0,64,0.00,,,0.00,weatherlink.com 1.10,2013-05-19 02:43:00,
2013-05-18 19:58:00,67.6,56.0,29.94,SSW,213,1.0,5.0,67,0.00,,,0.00,weatherlink.com 1.10,2013-05-19 02:58:00,
2013-05-18 20:13:00,66.8,55.0,29.95,SW,236,0.0,6.0,67,0.00,,,0.00,weatherlink.com 1.10,2013-05-19 03:13:00,
2013-05-18 20:28:00,65.9,56.0,29.95,SW,229,3.0,5.0,70,0.00,,,0.00,weatherlink.com 1.10,2013-05-19 03:28:00,
2013-05-18 20:43:00,65.4,56.0,29.95,SW,220,0.0,2.0,72,0.00,,,0.00,weatherlink.com 1.10,2013-05-19 03:43:00,
2013-05-18 20:58:00,65.1,56.0,29.95,SSE,150,1.0,2.0,72,0.00,,,0.00,weatherlink.com 1.10,2013-05-19 03:58:00,
2013-05-18 21:13:00,64.8,56.0,29.95,SSW,199,0.0,2.0,73,0.00,,,0.00,weatherlink.com 1.10,2013-05-19 04:13:00,
2013-05-18 21:28:00,64.7,57.0,29.95,WSW,247,0.0,3.0,75,0.00,,,0.00,weatherlink.com 1.10,2013-05-19 04:28:00,
2013-05-18 21:43:00,64.2,57.0,29.96,WSW,245,0.0,2.0,77,0.00,,,0.00,weatherlink.com 1.10,2013-05-19 04:43:00,
2013-05-18 21:58:00,64.1,57.0,29.95,SSW,199,0.0,2.0,78,0.00,,,0.00,weatherlink.com 1.10,2013-05-19 04:58:00,
2013-05-18 22:13:00,63.8,57.0,29.95,SSW,203,0.0,2.0,78,0.00,,,0.00,weatherlink.com 1.10,2013-05-19 05:13:00,
2013-05-18 22:28:00,63.4,57.0,29.95,SW,215,0.0,1.0,79,0.00,,,0.00,weatherlink.com 1.10,2013-05-19 05:28:00,
2013-05-18 22:43:00,63.3,57.0,29.95,SSW,206,0.0,2.0,80,0.00,,,0.00,weatherlink.com 1.10,2013-05-19 05:43:00,
2013-05-18 22:58:00,63.2,57.0,29.95,SSW,206,0.0,0.0,79,0.00,,,0.00,weatherlink.com 1.10,2013-05-19 05:58:00,
2013-05-18 23:13:00,62.7,56.0,29.95,SSW,206,0.0,1.0,80,0.00,,,0.00,weatherlink.com 1.10,2013-05-19 06:13:00,
2013-05-18 23:28:00,62.5,56.0,29.95,SSW,206,0.0,0.0,80,0.00,,,0.00,weatherlink.com 1.10,2013-05-19 06:28:00,
2013-05-18 23:43:00,62.4,56.0,29.95,SSW,206,0.0,1.0,80,0.00,,,0.00,weatherlink.com 1.10,2013-05-19 06:43:00,
2013-05-18 23:58:00,62.2,56.0,29.95,SSE,148,0.0,2.0,80,0.00,,,0.00,weatherlink.com 1.10,2013-05-19 06:58:00,